sensor_id;sensor_type;location;lat;lon;timestamp;P1;durP1;ratioP1;P2;durP2;ratioP2
28627;SDS011;15815;46.760;19.604;2022-08-30T00:02:27;10.60;;;7.93;;
28627;SDS011;15815;46.760;19.604;2022-08-30T00:04:53;11.50;;;8.45;;
28627;SDS011;15815;46.760;19.604;2022-08-30T00:07:19;9.68;;;7.50;;
28627;SDS011;15815;46.760;19.604;2022-08-30T00:09:44;10.57;;;7.32;;
28627;SDS011;15815;46.760;19.604;2022-08-30T00:12:09;10.10;;;7.53;;
28627;SDS011;15815;46.760;19.604;2022-08-30T00:14:35;10.48;;;7.72;;
28627;SDS011;15815;46.760;19.604;2022-08-30T00:17:00;11.65;;;8.35;;
28627;SDS011;15815;46.760;19.604;2022-08-30T00:19:26;9.48;;;8.02;;
28627;SDS011;15815;46.760;19.604;2022-08-30T00:21:51;10.40;;;7.93;;
28627;SDS011;15815;46.760;19.604;2022-08-30T00:24:16;9.23;;;7.50;;
28627;SDS011;15815;46.760;19.604;2022-08-30T00:26:41;10.40;;;7.90;;
28627;SDS011;15815;46.760;19.604;2022-08-30T00:29:07;11.30;;;8.10;;
28627;SDS011;15815;46.760;19.604;2022-08-30T00:31:32;9.60;;;8.60;;
28627;SDS011;15815;46.760;19.604;2022-08-30T00:33:58;11.27;;;8.07;;
28627;SDS011;15815;46.760;19.604;2022-08-30T00:36:23;11.68;;;8.35;;
28627;SDS011;15815;46.760;19.604;2022-08-30T00:38:48;10.35;;;8.20;;
28627;SDS011;15815;46.760;19.604;2022-08-30T00:41:13;12.32;;;8.45;;
28627;SDS011;15815;46.760;19.604;2022-08-30T00:43:39;13.93;;;9.00;;
28627;SDS011;15815;46.760;19.604;2022-08-30T00:46:04;14.82;;;9.35;;
28627;SDS011;15815;46.760;19.604;2022-08-30T00:48:32;13.15;;;8.75;;
28627;SDS011;15815;46.760;19.604;2022-08-30T00:51:03;16.50;;;9.15;;
28627;SDS011;15815;46.760;19.604;2022-08-30T00:53:33;12.25;;;8.60;;
28627;SDS011;15815;46.760;19.604;2022-08-30T00:56:01;14.10;;;9.38;;
28627;SDS011;15815;46.760;19.604;2022-08-30T00:58:33;13.90;;;9.65;;
28627;SDS011;15815;46.760;19.604;2022-08-30T01:01:02;13.48;;;9.63;;
28627;SDS011;15815;46.760;19.604;2022-08-30T01:03:30;11.48;;;9.93;;
28627;SDS011;15815;46.760;19.604;2022-08-30T01:05:57;12.70;;;10.43;;
28627;SDS011;15815;46.760;19.604;2022-08-30T01:08:23;12.70;;;9.60;;
28627;SDS011;15815;46.760;19.604;2022-08-30T01:10:49;17.17;;;10.07;;
28627;SDS011;15815;46.760;19.604;2022-08-30T01:13:17;14.75;;;10.05;;
28627;SDS011;15815;46.760;19.604;2022-08-30T01:15:45;14.52;;;9.45;;
28627;SDS011;15815;46.760;19.604;2022-08-30T01:18:12;14.05;;;10.38;;
28627;SDS011;15815;46.760;19.604;2022-08-30T01:23:35;14.55;;;10.40;;
28627;SDS011;15815;46.760;19.604;2022-08-30T01:26:04;20.27;;;10.90;;
28627;SDS011;15815;46.760;19.604;2022-08-30T01:28:30;12.90;;;10.32;;
28627;SDS011;15815;46.760;19.604;2022-08-30T01:30:56;11.48;;;9.63;;
28627;SDS011;15815;46.760;19.604;2022-08-30T01:33:22;14.65;;;10.65;;
28627;SDS011;15815;46.760;19.604;2022-08-30T01:35:51;14.48;;;10.27;;
28627;SDS011;15815;46.760;19.604;2022-08-30T01:38:26;15.13;;;11.07;;
28627;SDS011;15815;46.760;19.604;2022-08-30T01:40:58;14.77;;;10.02;;
28627;SDS011;15815;46.760;19.604;2022-08-30T01:43:25;13.87;;;10.03;;
28627;SDS011;15815;46.760;19.604;2022-08-30T01:45:51;17.58;;;12.15;;
28627;SDS011;15815;46.760;19.604;2022-08-30T01:48:16;14.52;;;10.55;;
28627;SDS011;15815;46.760;19.604;2022-08-30T01:50:42;19.10;;;10.10;;
28627;SDS011;15815;46.760;19.604;2022-08-30T01:53:07;17.90;;;10.63;;
28627;SDS011;15815;46.760;19.604;2022-08-30T01:55:33;12.77;;;10.48;;
28627;SDS011;15815;46.760;19.604;2022-08-30T01:57:59;12.48;;;10.00;;
28627;SDS011;15815;46.760;19.604;2022-08-30T02:00:25;13.27;;;11.07;;
28627;SDS011;15815;46.760;19.604;2022-08-30T02:02:50;13.63;;;10.48;;
28627;SDS011;15815;46.760;19.604;2022-08-30T02:05:16;14.38;;;10.98;;
28627;SDS011;15815;46.760;19.604;2022-08-30T02:07:41;14.57;;;10.85;;
28627;SDS011;15815;46.760;19.604;2022-08-30T02:10:07;16.15;;;10.55;;
28627;SDS011;15815;46.760;19.604;2022-08-30T02:12:32;13.18;;;10.82;;
28627;SDS011;15815;46.760;19.604;2022-08-30T02:14:59;17.23;;;10.40;;
28627;SDS011;15815;46.760;19.604;2022-08-30T02:17:25;12.38;;;10.18;;
28627;SDS011;15815;46.760;19.604;2022-08-30T02:19:51;13.73;;;10.05;;
28627;SDS011;15815;46.760;19.604;2022-08-30T02:22:17;14.40;;;10.60;;
28627;SDS011;15815;46.760;19.604;2022-08-30T02:24:44;15.13;;;11.25;;
28627;SDS011;15815;46.760;19.604;2022-08-30T02:27:10;13.23;;;10.18;;
28627;SDS011;15815;46.760;19.604;2022-08-30T02:29:35;13.98;;;10.38;;
28627;SDS011;15815;46.760;19.604;2022-08-30T02:32:01;16.15;;;10.98;;
28627;SDS011;15815;46.760;19.604;2022-08-30T02:34:26;17.17;;;9.98;;
28627;SDS011;15815;46.760;19.604;2022-08-30T02:36:51;13.80;;;10.23;;
28627;SDS011;15815;46.760;19.604;2022-08-30T02:39:17;15.45;;;9.95;;
28627;SDS011;15815;46.760;19.604;2022-08-30T02:41:42;14.02;;;10.20;;
28627;SDS011;15815;46.760;19.604;2022-08-30T02:44:08;11.23;;;9.98;;
28627;SDS011;15815;46.760;19.604;2022-08-30T02:46:34;14.57;;;10.40;;
28627;SDS011;15815;46.760;19.604;2022-08-30T02:49:00;12.90;;;10.27;;
28627;SDS011;15815;46.760;19.604;2022-08-30T02:51:26;12.77;;;10.07;;
28627;SDS011;15815;46.760;19.604;2022-08-30T02:53:52;12.70;;;10.65;;
28627;SDS011;15815;46.760;19.604;2022-08-30T02:56:17;14.20;;;11.35;;
28627;SDS011;15815;46.760;19.604;2022-08-30T02:58:43;14.00;;;11.35;;
28627;SDS011;15815;46.760;19.604;2022-08-30T03:01:09;13.90;;;11.63;;
28627;SDS011;15815;46.760;19.604;2022-08-30T03:03:37;15.30;;;11.63;;
28627;SDS011;15815;46.760;19.604;2022-08-30T03:06:03;15.27;;;11.80;;
28627;SDS011;15815;46.760;19.604;2022-08-30T03:08:30;15.52;;;11.10;;
28627;SDS011;15815;46.760;19.604;2022-08-30T03:10:55;17.08;;;11.93;;
28627;SDS011;15815;46.760;19.604;2022-08-30T03:13:21;14.63;;;10.95;;
28627;SDS011;15815;46.760;19.604;2022-08-30T03:15:48;15.65;;;11.85;;
28627;SDS011;15815;46.760;19.604;2022-08-30T03:18:14;13.98;;;10.65;;
28627;SDS011;15815;46.760;19.604;2022-08-30T03:20:40;15.20;;;11.70;;
28627;SDS011;15815;46.760;19.604;2022-08-30T03:23:06;15.43;;;11.65;;
28627;SDS011;15815;46.760;19.604;2022-08-30T03:25:31;14.38;;;11.50;;
28627;SDS011;15815;46.760;19.604;2022-08-30T03:27:57;14.75;;;11.60;;
28627;SDS011;15815;46.760;19.604;2022-08-30T03:30:23;12.60;;;10.50;;
28627;SDS011;15815;46.760;19.604;2022-08-30T03:32:49;15.07;;;11.80;;
28627;SDS011;15815;46.760;19.604;2022-08-30T03:35:14;13.52;;;11.32;;
28627;SDS011;15815;46.760;19.604;2022-08-30T03:37:42;13.90;;;11.20;;
28627;SDS011;15815;46.760;19.604;2022-08-30T03:40:09;15.10;;;11.43;;
28627;SDS011;15815;46.760;19.604;2022-08-30T03:42:36;14.40;;;11.50;;
28627;SDS011;15815;46.760;19.604;2022-08-30T03:45:02;16.00;;;11.57;;
28627;SDS011;15815;46.760;19.604;2022-08-30T03:47:29;16.50;;;11.88;;
28627;SDS011;15815;46.760;19.604;2022-08-30T03:49:54;15.50;;;11.77;;
28627;SDS011;15815;46.760;19.604;2022-08-30T03:52:20;15.65;;;11.13;;
28627;SDS011;15815;46.760;19.604;2022-08-30T03:54:45;12.93;;;10.65;;
28627;SDS011;15815;46.760;19.604;2022-08-30T03:57:11;14.40;;;11.88;;
28627;SDS011;15815;46.760;19.604;2022-08-30T03:59:37;18.90;;;12.88;;
28627;SDS011;15815;46.760;19.604;2022-08-30T04:02:02;16.85;;;12.52;;
28627;SDS011;15815;46.760;19.604;2022-08-30T04:04:29;15.27;;;12.63;;
28627;SDS011;15815;46.760;19.604;2022-08-30T04:06:54;15.98;;;12.48;;
28627;SDS011;15815;46.760;19.604;2022-08-30T04:09:20;19.98;;;13.40;;
28627;SDS011;15815;46.760;19.604;2022-08-30T04:11:46;16.23;;;13.75;;
28627;SDS011;15815;46.760;19.604;2022-08-30T04:14:11;15.18;;;13.57;;
28627;SDS011;15815;46.760;19.604;2022-08-30T04:16:36;21.30;;;13.25;;
28627;SDS011;15815;46.760;19.604;2022-08-30T04:19:02;17.52;;;13.00;;
28627;SDS011;15815;46.760;19.604;2022-08-30T04:21:28;19.40;;;14.23;;
28627;SDS011;15815;46.760;19.604;2022-08-30T04:23:53;22.50;;;14.25;;
28627;SDS011;15815;46.760;19.604;2022-08-30T04:26:18;17.23;;;13.55;;
28627;SDS011;15815;46.760;19.604;2022-08-30T04:28:44;19.70;;;14.70;;
28627;SDS011;15815;46.760;19.604;2022-08-30T04:31:10;21.13;;;13.77;;
28627;SDS011;15815;46.760;19.604;2022-08-30T04:33:38;16.35;;;13.50;;
28627;SDS011;15815;46.760;19.604;2022-08-30T04:36:04;22.42;;;14.98;;
28627;SDS011;15815;46.760;19.604;2022-08-30T04:38:31;22.50;;;14.27;;
28627;SDS011;15815;46.760;19.604;2022-08-30T04:40:57;19.02;;;14.70;;
28627;SDS011;15815;46.760;19.604;2022-08-30T04:43:23;20.08;;;14.43;;
28627;SDS011;15815;46.760;19.604;2022-08-30T04:45:50;18.10;;;14.00;;
28627;SDS011;15815;46.760;19.604;2022-08-30T04:48:17;19.58;;;13.88;;
28627;SDS011;15815;46.760;19.604;2022-08-30T04:50:43;18.60;;;14.38;;
28627;SDS011;15815;46.760;19.604;2022-08-30T04:53:09;17.92;;;14.48;;
28627;SDS011;15815;46.760;19.604;2022-08-30T04:55:34;17.70;;;14.73;;
28627;SDS011;15815;46.760;19.604;2022-08-30T04:57:59;19.45;;;14.35;;
28627;SDS011;15815;46.760;19.604;2022-08-30T05:00:25;19.42;;;13.30;;
28627;SDS011;15815;46.760;19.604;2022-08-30T05:02:50;19.73;;;14.90;;
28627;SDS011;15815;46.760;19.604;2022-08-30T05:05:16;18.58;;;14.18;;
28627;SDS011;15815;46.760;19.604;2022-08-30T05:08:00;23.27;;;15.10;;
28627;SDS011;15815;46.760;19.604;2022-08-30T05:10:26;21.95;;;15.20;;
28627;SDS011;15815;46.760;19.604;2022-08-30T05:12:52;22.48;;;14.35;;
28627;SDS011;15815;46.760;19.604;2022-08-30T05:15:18;20.48;;;14.75;;
28627;SDS011;15815;46.760;19.604;2022-08-30T05:17:46;21.23;;;14.10;;
28627;SDS011;15815;46.760;19.604;2022-08-30T05:20:12;17.20;;;14.50;;
28627;SDS011;15815;46.760;19.604;2022-08-30T05:22:38;21.85;;;15.55;;
28627;SDS011;15815;46.760;19.604;2022-08-30T05:25:06;21.33;;;14.60;;
28627;SDS011;15815;46.760;19.604;2022-08-30T05:27:32;19.35;;;14.77;;
28627;SDS011;15815;46.760;19.604;2022-08-30T05:29:58;18.92;;;13.68;;
28627;SDS011;15815;46.760;19.604;2022-08-30T05:32:24;19.02;;;14.63;;
28627;SDS011;15815;46.760;19.604;2022-08-30T05:34:49;21.67;;;13.75;;
28627;SDS011;15815;46.760;19.604;2022-08-30T05:37:15;19.45;;;13.18;;
28627;SDS011;15815;46.760;19.604;2022-08-30T05:39:40;16.90;;;13.45;;
28627;SDS011;15815;46.760;19.604;2022-08-30T05:42:05;19.80;;;13.00;;
28627;SDS011;15815;46.760;19.604;2022-08-30T05:44:31;18.27;;;13.02;;
28627;SDS011;15815;46.760;19.604;2022-08-30T05:46:56;21.05;;;12.80;;
28627;SDS011;15815;46.760;19.604;2022-08-30T05:49:22;26.15;;;12.90;;
28627;SDS011;15815;46.760;19.604;2022-08-30T05:51:47;16.52;;;11.98;;
28627;SDS011;15815;46.760;19.604;2022-08-30T05:54:13;16.02;;;11.88;;
28627;SDS011;15815;46.760;19.604;2022-08-30T05:56:39;12.50;;;10.68;;
28627;SDS011;15815;46.760;19.604;2022-08-30T05:59:06;24.00;;;10.93;;
28627;SDS011;15815;46.760;19.604;2022-08-30T06:01:34;18.17;;;10.77;;
28627;SDS011;15815;46.760;19.604;2022-08-30T06:04:02;15.75;;;10.75;;
28627;SDS011;15815;46.760;19.604;2022-08-30T06:06:29;13.63;;;9.77;;
28627;SDS011;15815;46.760;19.604;2022-08-30T06:08:57;13.77;;;9.18;;
28627;SDS011;15815;46.760;19.604;2022-08-30T06:11:23;14.43;;;9.73;;
28627;SDS011;15815;46.760;19.604;2022-08-30T06:13:50;16.30;;;9.75;;
28627;SDS011;15815;46.760;19.604;2022-08-30T06:16:18;14.57;;;9.45;;
28627;SDS011;15815;46.760;19.604;2022-08-30T06:18:45;16.08;;;9.02;;
28627;SDS011;15815;46.760;19.604;2022-08-30T06:21:15;11.85;;;8.02;;
28627;SDS011;15815;46.760;19.604;2022-08-30T06:23:42;13.82;;;9.27;;
28627;SDS011;15815;46.760;19.604;2022-08-30T06:26:08;13.63;;;8.68;;
28627;SDS011;15815;46.760;19.604;2022-08-30T06:28:34;10.32;;;7.70;;
28627;SDS011;15815;46.760;19.604;2022-08-30T06:30:59;16.30;;;8.23;;
28627;SDS011;15815;46.760;19.604;2022-08-30T06:33:25;11.35;;;7.80;;
28627;SDS011;15815;46.760;19.604;2022-08-30T06:35:50;12.65;;;7.15;;
28627;SDS011;15815;46.760;19.604;2022-08-30T06:38:15;10.95;;;7.13;;
28627;SDS011;15815;46.760;19.604;2022-08-30T06:40:41;11.27;;;6.97;;
28627;SDS011;15815;46.760;19.604;2022-08-30T06:43:06;11.68;;;6.43;;
28627;SDS011;15815;46.760;19.604;2022-08-30T06:45:34;14.82;;;6.55;;
28627;SDS011;15815;46.760;19.604;2022-08-30T06:48:00;16.42;;;5.82;;
28627;SDS011;15815;46.760;19.604;2022-08-30T06:50:26;9.43;;;5.32;;
28627;SDS011;15815;46.760;19.604;2022-08-30T06:52:52;8.38;;;5.35;;
28627;SDS011;15815;46.760;19.604;2022-08-30T06:55:17;7.45;;;4.68;;
28627;SDS011;15815;46.760;19.604;2022-08-30T06:57:43;7.97;;;5.38;;
28627;SDS011;15815;46.760;19.604;2022-08-30T07:00:12;8.85;;;4.88;;
28627;SDS011;15815;46.760;19.604;2022-08-30T07:02:39;13.00;;;5.53;;
28627;SDS011;15815;46.760;19.604;2022-08-30T07:05:05;9.32;;;5.65;;
28627;SDS011;15815;46.760;19.604;2022-08-30T07:07:31;9.13;;;4.57;;
28627;SDS011;15815;46.760;19.604;2022-08-30T07:09:57;9.93;;;4.30;;
28627;SDS011;15815;46.760;19.604;2022-08-30T07:12:25;8.43;;;4.45;;
28627;SDS011;15815;46.760;19.604;2022-08-30T07:14:50;10.02;;;3.85;;
28627;SDS011;15815;46.760;19.604;2022-08-30T07:17:15;9.00;;;4.53;;
28627;SDS011;15815;46.760;19.604;2022-08-30T07:20:00;6.13;;;4.20;;
28627;SDS011;15815;46.760;19.604;2022-08-30T07:22:25;10.27;;;4.15;;
28627;SDS011;15815;46.760;19.604;2022-08-30T07:24:51;8.03;;;3.93;;
28627;SDS011;15815;46.760;19.604;2022-08-30T07:27:16;7.60;;;3.70;;
28627;SDS011;15815;46.760;19.604;2022-08-30T07:29:42;5.28;;;3.80;;
28627;SDS011;15815;46.760;19.604;2022-08-30T07:32:07;7.63;;;3.60;;
28627;SDS011;15815;46.760;19.604;2022-08-30T07:34:32;6.28;;;3.95;;
28627;SDS011;15815;46.760;19.604;2022-08-30T07:36:58;5.65;;;3.55;;
28627;SDS011;15815;46.760;19.604;2022-08-30T07:39:23;6.13;;;3.85;;
28627;SDS011;15815;46.760;19.604;2022-08-30T07:41:48;8.48;;;3.85;;
28627;SDS011;15815;46.760;19.604;2022-08-30T07:44:14;8.73;;;3.38;;
28627;SDS011;15815;46.760;19.604;2022-08-30T07:46:40;6.50;;;4.10;;
28627;SDS011;15815;46.760;19.604;2022-08-30T07:49:06;7.13;;;4.00;;
28627;SDS011;15815;46.760;19.604;2022-08-30T07:51:33;7.35;;;4.40;;
28627;SDS011;15815;46.760;19.604;2022-08-30T07:53:59;7.28;;;4.10;;
28627;SDS011;15815;46.760;19.604;2022-08-30T07:56:25;7.55;;;4.47;;
28627;SDS011;15815;46.760;19.604;2022-08-30T07:58:50;5.60;;;3.97;;
28627;SDS011;15815;46.760;19.604;2022-08-30T08:01:17;7.32;;;4.22;;
28627;SDS011;15815;46.760;19.604;2022-08-30T08:03:43;14.60;;;5.43;;
28627;SDS011;15815;46.760;19.604;2022-08-30T08:06:10;8.52;;;4.78;;
28627;SDS011;15815;46.760;19.604;2022-08-30T08:08:37;7.20;;;4.50;;
28627;SDS011;15815;46.760;19.604;2022-08-30T08:11:07;7.93;;;4.63;;
28627;SDS011;15815;46.760;19.604;2022-08-30T08:13:38;6.30;;;4.43;;
28627;SDS011;15815;46.760;19.604;2022-08-30T08:16:05;8.57;;;4.53;;
28627;SDS011;15815;46.760;19.604;2022-08-30T08:18:30;7.45;;;4.15;;
28627;SDS011;15815;46.760;19.604;2022-08-30T08:20:56;8.82;;;5.40;;
28627;SDS011;15815;46.760;19.604;2022-08-30T08:23:21;9.55;;;4.80;;
28627;SDS011;15815;46.760;19.604;2022-08-30T08:25:47;10.20;;;5.80;;
28627;SDS011;15815;46.760;19.604;2022-08-30T08:28:12;10.18;;;4.78;;
28627;SDS011;15815;46.760;19.604;2022-08-30T08:30:38;8.10;;;4.72;;
28627;SDS011;15815;46.760;19.604;2022-08-30T08:33:04;9.00;;;5.53;;
28627;SDS011;15815;46.760;19.604;2022-08-30T08:35:30;8.32;;;5.28;;
28627;SDS011;15815;46.760;19.604;2022-08-30T08:37:56;6.85;;;4.97;;
28627;SDS011;15815;46.760;19.604;2022-08-30T08:40:22;9.40;;;5.18;;
28627;SDS011;15815;46.760;19.604;2022-08-30T08:48:01;5.75;;;4.93;;
28627;SDS011;15815;46.760;19.604;2022-08-30T08:50:48;6.70;;;4.85;;
28627;SDS011;15815;46.760;19.604;2022-08-30T08:53:32;8.45;;;5.18;;
28627;SDS011;15815;46.760;19.604;2022-08-30T08:56:00;8.18;;;5.07;;
28627;SDS011;15815;46.760;19.604;2022-08-30T08:58:28;10.40;;;6.00;;
28627;SDS011;15815;46.760;19.604;2022-08-30T09:01:01;8.35;;;5.13;;
28627;SDS011;15815;46.760;19.604;2022-08-30T09:03:27;10.77;;;5.25;;
28627;SDS011;15815;46.760;19.604;2022-08-30T09:05:53;7.13;;;4.95;;
28627;SDS011;15815;46.760;19.604;2022-08-30T09:08:19;7.72;;;5.15;;
28627;SDS011;15815;46.760;19.604;2022-08-30T09:10:59;8.98;;;5.60;;
28627;SDS011;15815;46.760;19.604;2022-08-30T09:13:29;8.57;;;4.65;;
28627;SDS011;15815;46.760;19.604;2022-08-30T09:15:55;11.23;;;4.83;;
28627;SDS011;15815;46.760;19.604;2022-08-30T09:21:08;7.38;;;4.53;;
28627;SDS011;15815;46.760;19.604;2022-08-30T09:23:35;8.88;;;5.18;;
28627;SDS011;15815;46.760;19.604;2022-08-30T09:26:04;5.65;;;4.30;;
28627;SDS011;15815;46.760;19.604;2022-08-30T09:28:34;8.45;;;4.43;;
28627;SDS011;15815;46.760;19.604;2022-08-30T09:34:46;11.73;;;4.65;;
28627;SDS011;15815;46.760;19.604;2022-08-30T09:41:44;8.10;;;4.55;;
28627;SDS011;15815;46.760;19.604;2022-08-30T09:46:42;8.25;;;4.20;;
28627;SDS011;15815;46.760;19.604;2022-08-30T09:57:39;5.90;;;4.00;;
28627;SDS011;15815;46.760;19.604;2022-08-30T10:00:18;7.18;;;4.53;;
28627;SDS011;15815;46.760;19.604;2022-08-30T10:05:34;7.35;;;4.35;;
28627;SDS011;15815;46.760;19.604;2022-08-30T10:22:40;4.80;;;3.50;;
28627;SDS011;15815;46.760;19.604;2022-08-30T10:25:31;4.43;;;3.65;;
28627;SDS011;15815;46.760;19.604;2022-08-30T10:30:41;4.93;;;3.95;;
28627;SDS011;15815;46.760;19.604;2022-08-30T10:33:20;5.32;;;3.83;;
28627;SDS011;15815;46.760;19.604;2022-08-30T10:35:51;8.75;;;3.42;;
28627;SDS011;15815;46.760;19.604;2022-08-30T10:43:52;5.75;;;3.53;;
28627;SDS011;15815;46.760;19.604;2022-08-30T10:49:21;4.27;;;3.30;;
28627;SDS011;15815;46.760;19.604;2022-08-30T10:51:50;6.82;;;3.42;;
28627;SDS011;15815;46.760;19.604;2022-08-30T10:54:29;4.95;;;3.30;;
28627;SDS011;15815;46.760;19.604;2022-08-30T10:57:06;4.18;;;3.05;;
28627;SDS011;15815;46.760;19.604;2022-08-30T10:59:33;5.88;;;3.53;;
28627;SDS011;15815;46.760;19.604;2022-08-30T11:10:25;7.47;;;3.10;;
28627;SDS011;15815;46.760;19.604;2022-08-30T11:13:23;6.05;;;3.42;;
28627;SDS011;15815;46.760;19.604;2022-08-30T11:15:58;5.13;;;3.42;;
28627;SDS011;15815;46.760;19.604;2022-08-30T11:18:39;8.93;;;3.78;;
28627;SDS011;15815;46.760;19.604;2022-08-30T11:21:50;6.03;;;3.30;;
28627;SDS011;15815;46.760;19.604;2022-08-30T11:31:51;8.80;;;3.50;;
28627;SDS011;15815;46.760;19.604;2022-08-30T11:37:08;4.53;;;3.38;;
28627;SDS011;15815;46.760;19.604;2022-08-30T11:42:12;9.07;;;3.65;;
28627;SDS011;15815;46.760;19.604;2022-08-30T11:50:14;5.90;;;3.00;;
28627;SDS011;15815;46.760;19.604;2022-08-30T11:58:41;4.28;;;2.92;;
28627;SDS011;15815;46.760;19.604;2022-08-30T12:03:57;6.75;;;2.70;;
28627;SDS011;15815;46.760;19.604;2022-08-30T12:06:50;5.45;;;3.40;;
28627;SDS011;15815;46.760;19.604;2022-08-30T12:11:54;4.43;;;3.30;;
28627;SDS011;15815;46.760;19.604;2022-08-30T12:14:32;4.90;;;3.20;;
28627;SDS011;15815;46.760;19.604;2022-08-30T12:17:01;5.43;;;3.22;;
28627;SDS011;15815;46.760;19.604;2022-08-30T12:19:52;8.70;;;3.35;;
28627;SDS011;15815;46.760;19.604;2022-08-30T12:22:21;6.20;;;2.83;;
28627;SDS011;15815;46.760;19.604;2022-08-30T12:24:47;4.80;;;2.60;;
28627;SDS011;15815;46.760;19.604;2022-08-30T12:27:24;4.72;;;3.38;;
28627;SDS011;15815;46.760;19.604;2022-08-30T12:29:51;4.60;;;2.92;;
28627;SDS011;15815;46.760;19.604;2022-08-30T12:32:17;4.75;;;3.20;;
28627;SDS011;15815;46.760;19.604;2022-08-30T12:34:53;6.10;;;3.03;;
28627;SDS011;15815;46.760;19.604;2022-08-30T12:42:36;5.05;;;3.03;;
28627;SDS011;15815;46.760;19.604;2022-08-30T12:45:12;3.90;;;2.97;;
28627;SDS011;15815;46.760;19.604;2022-08-30T12:47:50;5.50;;;2.95;;
28627;SDS011;15815;46.760;19.604;2022-08-30T12:50:23;7.07;;;3.03;;
28627;SDS011;15815;46.760;19.604;2022-08-30T12:53:06;2.88;;;2.42;;
28627;SDS011;15815;46.760;19.604;2022-08-30T12:55:35;6.88;;;2.75;;
28627;SDS011;15815;46.760;19.604;2022-08-30T12:58:13;7.03;;;2.80;;
28627;SDS011;15815;46.760;19.604;2022-08-30T13:00:43;5.70;;;2.72;;
28627;SDS011;15815;46.760;19.604;2022-08-30T13:05:59;5.88;;;2.83;;
28627;SDS011;15815;46.760;19.604;2022-08-30T13:08:33;5.47;;;2.78;;
28627;SDS011;15815;46.760;19.604;2022-08-30T13:23:47;3.88;;;2.78;;
28627;SDS011;15815;46.760;19.604;2022-08-30T13:26:13;5.68;;;2.58;;
28627;SDS011;15815;46.760;19.604;2022-08-30T13:28:46;4.20;;;2.53;;
28627;SDS011;15815;46.760;19.604;2022-08-30T13:31:25;3.33;;;2.40;;
28627;SDS011;15815;46.760;19.604;2022-08-30T13:33:53;3.63;;;2.40;;
28627;SDS011;15815;46.760;19.604;2022-08-30T13:36:24;3.20;;;2.63;;
28627;SDS011;15815;46.760;19.604;2022-08-30T13:38:52;9.68;;;2.90;;
28627;SDS011;15815;46.760;19.604;2022-08-30T13:41:18;8.73;;;2.65;;
28627;SDS011;15815;46.760;19.604;2022-08-30T13:43:45;5.95;;;2.60;;
28627;SDS011;15815;46.760;19.604;2022-08-30T18:28:19;8.32;;;3.15;;
28627;SDS011;15815;46.760;19.604;2022-08-30T18:30:44;11.05;;;3.83;;
28627;SDS011;15815;46.760;19.604;2022-08-30T18:33:11;8.70;;;3.35;;
28627;SDS011;15815;46.760;19.604;2022-08-30T18:35:36;9.43;;;3.40;;
28627;SDS011;15815;46.760;19.604;2022-08-30T18:38:03;5.60;;;3.10;;
28627;SDS011;15815;46.760;19.604;2022-08-30T18:40:29;4.68;;;2.90;;
28627;SDS011;15815;46.760;19.604;2022-08-30T18:42:54;3.95;;;2.67;;
28627;SDS011;15815;46.760;19.604;2022-08-30T18:45:20;5.97;;;2.93;;
28627;SDS011;15815;46.760;19.604;2022-08-30T18:47:47;7.60;;;3.35;;
28627;SDS011;15815;46.760;19.604;2022-08-30T18:50:12;7.57;;;3.03;;
28627;SDS011;15815;46.760;19.604;2022-08-30T18:52:37;5.63;;;3.08;;
28627;SDS011;15815;46.760;19.604;2022-08-30T18:55:03;7.72;;;3.60;;
28627;SDS011;15815;46.760;19.604;2022-08-30T18:57:29;8.98;;;3.20;;
28627;SDS011;15815;46.760;19.604;2022-08-30T18:59:54;4.75;;;3.10;;
28627;SDS011;15815;46.760;19.604;2022-08-30T19:02:19;7.35;;;3.58;;
28627;SDS011;15815;46.760;19.604;2022-08-30T19:04:45;8.52;;;3.33;;
28627;SDS011;15815;46.760;19.604;2022-08-30T19:07:12;10.10;;;3.80;;
28627;SDS011;15815;46.760;19.604;2022-08-30T19:09:39;6.88;;;3.15;;
28627;SDS011;15815;46.760;19.604;2022-08-30T19:12:05;5.35;;;3.70;;
28627;SDS011;15815;46.760;19.604;2022-08-30T19:14:30;5.22;;;3.08;;
28627;SDS011;15815;46.760;19.604;2022-08-30T19:16:55;6.72;;;3.22;;
28627;SDS011;15815;46.760;19.604;2022-08-30T19:19:21;6.75;;;3.25;;
28627;SDS011;15815;46.760;19.604;2022-08-30T19:21:47;5.38;;;3.40;;
28627;SDS011;15815;46.760;19.604;2022-08-30T19:24:12;5.70;;;3.45;;
28627;SDS011;15815;46.760;19.604;2022-08-30T19:26:38;5.07;;;3.08;;
28627;SDS011;15815;46.760;19.604;2022-08-30T19:29:04;10.50;;;3.60;;
28627;SDS011;15815;46.760;19.604;2022-08-30T19:31:31;6.30;;;3.40;;
28627;SDS011;15815;46.760;19.604;2022-08-30T19:33:56;5.97;;;3.30;;
28627;SDS011;15815;46.760;19.604;2022-08-30T19:36:21;5.38;;;3.00;;
28627;SDS011;15815;46.760;19.604;2022-08-30T19:38:47;5.50;;;3.42;;
28627;SDS011;15815;46.760;19.604;2022-08-30T19:41:13;7.18;;;3.47;;
28627;SDS011;15815;46.760;19.604;2022-08-30T19:43:39;7.80;;;3.28;;
28627;SDS011;15815;46.760;19.604;2022-08-30T19:46:05;6.55;;;3.10;;
28627;SDS011;15815;46.760;19.604;2022-08-30T19:48:31;9.68;;;3.63;;
28627;SDS011;15815;46.760;19.604;2022-08-30T19:50:57;12.80;;;3.45;;
28627;SDS011;15815;46.760;19.604;2022-08-30T19:53:22;5.72;;;3.03;;
28627;SDS011;15815;46.760;19.604;2022-08-30T19:55:48;11.98;;;3.70;;
28627;SDS011;15815;46.760;19.604;2022-08-30T19:58:14;11.45;;;3.45;;
28627;SDS011;15815;46.760;19.604;2022-08-30T20:00:39;7.80;;;3.45;;
28627;SDS011;15815;46.760;19.604;2022-08-30T20:03:05;10.27;;;3.10;;
28627;SDS011;15815;46.760;19.604;2022-08-30T20:05:30;10.40;;;3.35;;
28627;SDS011;15815;46.760;19.604;2022-08-30T20:07:56;10.77;;;3.63;;
28627;SDS011;15815;46.760;19.604;2022-08-30T20:10:22;5.95;;;3.45;;
28627;SDS011;15815;46.760;19.604;2022-08-30T20:12:47;10.13;;;3.60;;
28627;SDS011;15815;46.760;19.604;2022-08-30T20:15:13;11.38;;;3.58;;
28627;SDS011;15815;46.760;19.604;2022-08-30T20:17:40;8.07;;;3.05;;
28627;SDS011;15815;46.760;19.604;2022-08-30T20:20:08;6.22;;;3.53;;
28627;SDS011;15815;46.760;19.604;2022-08-30T20:22:35;9.80;;;3.60;;
28627;SDS011;15815;46.760;19.604;2022-08-30T20:25:00;8.70;;;3.28;;
28627;SDS011;15815;46.760;19.604;2022-08-30T20:27:25;7.38;;;3.38;;
28627;SDS011;15815;46.760;19.604;2022-08-30T20:29:51;12.50;;;3.65;;
28627;SDS011;15815;46.760;19.604;2022-08-30T20:32:16;6.40;;;3.17;;
28627;SDS011;15815;46.760;19.604;2022-08-30T20:34:42;7.65;;;3.60;;
28627;SDS011;15815;46.760;19.604;2022-08-30T20:37:08;5.53;;;3.70;;
28627;SDS011;15815;46.760;19.604;2022-08-30T20:39:34;8.57;;;3.67;;
28627;SDS011;15815;46.760;19.604;2022-08-30T20:42:00;9.93;;;3.70;;
28627;SDS011;15815;46.760;19.604;2022-08-30T20:44:26;7.72;;;3.60;;
28627;SDS011;15815;46.760;19.604;2022-08-30T20:46:51;5.45;;;3.20;;
28627;SDS011;15815;46.760;19.604;2022-08-30T20:49:16;7.43;;;3.72;;
28627;SDS011;15815;46.760;19.604;2022-08-30T20:51:43;6.25;;;3.35;;
28627;SDS011;15815;46.760;19.604;2022-08-30T20:54:10;8.95;;;4.15;;
28627;SDS011;15815;46.760;19.604;2022-08-30T20:56:36;6.40;;;3.80;;
28627;SDS011;15815;46.760;19.604;2022-08-30T20:59:01;8.88;;;3.72;;
28627;SDS011;15815;46.760;19.604;2022-08-30T21:01:31;10.18;;;3.83;;
28627;SDS011;15815;46.760;19.604;2022-08-30T21:03:57;5.78;;;3.42;;
28627;SDS011;15815;46.760;19.604;2022-08-30T21:06:23;8.43;;;3.58;;